Time;durP1;ratioP1;P1;durP2;ratioP2;P2;SDS_P1;SDS_P2;PMS_P1;PMS_P2;Temp;Humidity;BMP_temperature;BMP_pressure;BME280_temperature;BME280_humidity;BME280_pressure;Samples;Min_cycle;Max_cycle;Signal;HPM_P1;HPM_P2
2021/01/19 00:01:21;;;;;;;;;;;;;;;29.30;17.91;101543.25;5096557;28;767;-32
2021/01/19 00:03:47;;;;;;;;;;;;;;;29.46;18.01;101547.72;5096562;28;768;-33
2021/01/19 00:06:13;;;;;;;;;;;;;;;29.18;18.01;101540.09;5096791;28;834;-29
2021/01/19 00:08:39;;;;;;;;;;;;;;;28.82;18.66;101536.84;5095952;28;949;-33
2021/01/19 00:11:05;;;;;;;;;;;;;;;29.15;18.00;101533.16;5096379;28;821;-32
2021/01/19 00:13:31;;;;;;;;;;;;;;;28.80;18.44;101527.22;5096544;28;836;-33
2021/01/19 00:15:56;;;;;;;;;;;;;;;29.37;17.91;101530.66;5096520;28;799;-32
2021/01/19 00:18:21;;;;;;;;;;;;;;;29.18;18.10;101540.94;5096144;28;1965;-33
2021/01/19 00:20:46;;;;;;;;;;;;;;;29.39;17.78;101536.75;5096242;28;810;-33
2021/01/19 00:23:15;;;;;;;;;;;;;;;29.48;17.74;101540.25;5083070;28;937;-31
2021/01/19 00:25:40;;;;;;;;;;;;;;;29.34;17.97;101539.16;5075918;28;1293;-34
2021/01/19 00:28:06;;;;;;;;;;;;;;;29.14;18.26;101536.06;5075970;28;752;-34
2021/01/19 00:30:31;;;;;;;;;;;;;;;29.26;17.98;101542.75;5078810;28;821;-32
2021/01/19 00:32:56;;;;;;;;;;;;;;;28.85;18.48;101543.78;5080186;28;759;-32
2021/01/19 00:35:21;;;;;;;;;;;;;;;29.01;18.42;101542.06;5080091;28;831;-31
2021/01/19 00:37:47;;;;;;;;;;;;;;;28.71;18.67;101542.66;5089364;28;989;-30
2021/01/19 00:40:12;;;;;;;;;;;;;;;28.22;19.00;101536.31;5100149;28;1919;-32
2021/01/19 00:42:37;;;;;;;;;;;;;;;27.58;20.06;101544.06;5100174;28;743;-31
2021/01/19 00:45:03;;;;;;;;;;;;;;;27.71;19.69;101540.88;5100484;28;833;-30
2021/01/19 00:47:28;;;;;;;;;;;;;;;28.11;19.05;101538.34;5099737;28;859;-37
2021/01/19 00:49:54;;;;;;;;;;;;;;;27.28;20.41;101534.72;5100147;28;751;-32
2021/01/19 00:52:19;;;;;;;;;;;;;;;27.49;20.01;101531.56;5100129;28;945;-34
2021/01/19 00:54:44;;;;;;;;;;;;;;;28.15;19.45;101535.28;5099944;28;825;-36
2021/01/19 00:57:09;;;;;;;;;;;;;;;28.83;18.68;101538.53;5100076;28;815;-35
2021/01/19 00:59:35;;;;;;;;;;;;;;;28.96;18.16;101539.84;5099995;28;1898;-32
2021/01/19 01:02:00;;;;;;;;;;;;;;;28.40;18.86;101529.88;5099891;28;823;-34
2021/01/19 01:04:25;;;;;;;;;;;;;;;28.69;18.68;101534.72;5099625;28;1381;-33
2021/01/19 01:06:51;;;;;;;;;;;;;;;28.82;18.70;101536.00;5099339;28;950;-39
2021/01/19 01:09:16;;;;;;;;;;;;;;;28.90;18.61;101548.66;5099685;28;776;-32
2021/01/19 01:11:42;;;;;;;;;;;;;;;28.99;18.25;101541.38;5099934;28;847;-30
2021/01/19 01:14:07;;;;;;;;;;;;;;;28.81;18.36;101553.28;5100172;28;743;-30
2021/01/19 01:16:32;;;;;;;;;;;;;;;29.08;18.15;101553.84;5099406;28;821;-32
2021/01/19 01:18:58;;;;;;;;;;;;;;;28.72;18.72;101553.31;5099252;28;1909;-30
2021/01/19 01:21:23;;;;;;;;;;;;;;;28.50;19.13;101549.47;5100007;28;791;-32
2021/01/19 01:23:48;;;;;;;;;;;;;;;28.62;18.81;101549.09;5081372;28;997;-32
2021/01/19 01:26:15;;;;;;;;;;;;;;;28.58;18.53;101557.56;5078477;28;1248;-33
2021/01/19 01:28:40;;;;;;;;;;;;;;;29.07;18.27;101557.59;5079254;28;819;-30
2021/01/19 01:31:05;;;;;;;;;;;;;;;29.03;18.36;101562.50;5079256;28;977;-34
2021/01/19 01:33:31;;;;;;;;;;;;;;;28.72;18.60;101561.44;5078832;28;974;-33
2021/01/19 01:35:56;;;;;;;;;;;;;;;28.82;18.42;101558.53;5079458;28;783;-34
2021/01/19 01:38:21;;;;;;;;;;;;;;;28.86;18.65;101561.72;5092814;28;1968;-34
2021/01/19 01:40:46;;;;;;;;;;;;;;;28.64;18.54;101555.19;5098490;28;755;-32
2021/01/19 01:43:12;;;;;;;;;;;;;;;28.56;18.83;101558.78;5099316;28;844;-30
2021/01/19 01:45:38;;;;;;;;;;;;;;;28.71;18.44;101562.44;5098964;28;835;-33
2021/01/19 01:48:03;;;;;;;;;;;;;;;29.31;17.93;101572.88;5098773;28;751;-32
2021/01/19 01:50:28;;;;;;;;;;;;;;;28.94;18.57;101575.25;5099191;28;806;-33
2021/01/19 01:52:53;;;;;;;;;;;;;;;28.73;18.67;101570.38;5098798;28;1127;-30
2021/01/19 01:55:19;;;;;;;;;;;;;;;28.94;18.46;101567.13;5097461;28;747;-33
2021/01/19 01:57:44;;;;;;;;;;;;;;;28.96;18.26;101566.94;5098533;28;800;-30
2021/01/19 02:00:10;;;;;;;;;;;;;;;29.03;18.24;101556.28;5098810;28;1906;-31
2021/01/19 02:02:56;;;;;;;;;;;;;;;28.83;18.72;101562.06;5098860;28;764;-33
2021/01/19 02:05:21;;;;;;;;;;;;;;;29.06;18.27;101562.16;5098556;28;1972;-32
2021/01/19 02:07:59;;;;;;;;;;;;;;;28.79;18.84;101564.28;5098422;28;1004;-34
2021/01/19 02:10:30;;;;;;;;;;;;;;;28.94;18.56;101574.38;5097610;28;771;-40
2021/01/19 02:13:16;;;;;;;;;;;;;;;28.76;18.48;101567.31;5098311;28;772;-32
2021/01/19 02:15:42;;;;;;;;;;;;;;;29.14;18.43;101566.72;5098253;28;1426;-32
2021/01/19 02:18:17;;;;;;;;;;;;;;;28.85;18.67;101566.28;5097901;28;1901;-30
2021/01/19 02:21:01;;;;;;;;;;;;;;;28.44;19.21;101558.28;5097471;28;730;-32
2021/01/19 02:23:26;;;;;;;;;;;;;;;28.95;18.31;101565.22;5083293;28;996;-33
2021/01/19 02:26:10;;;;;;;;;;;;;;;28.90;18.84;101556.78;5078128;28;1071;-40
2021/01/19 02:28:40;;;;;;;;;;;;;;;28.93;18.74;101553.72;5077881;28;791;-32
2021/01/19 02:31:17;;;;;;;;;;;;;;;29.00;18.40;101556.59;5077914;28;755;-30
2021/01/19 02:34:01;;;;;;;;;;;;;;;29.02;18.54;101563.53;5076873;28;819;-33
2021/01/19 02:36:48;;;;;;;;;;;;;;;29.30;18.09;101560.34;5078019;28;771;-34
2021/01/19 02:39:15;;;;;;;;;;;;;;;29.13;18.46;101553.34;5076451;28;1914;-30
2021/01/19 02:41:41;;;;;;;;;;;;;;;29.18;18.33;101551.78;5076495;28;787;-31
2021/01/19 02:44:21;;;;;;;;;;;;;;;28.75;18.72;101549.41;5077987;28;807;-30
2021/01/19 02:46:51;;;;;;;;;;;;;;;29.32;18.30;101552.03;5077464;28;823;-34
2021/01/19 02:49:16;;;;;;;;;;;;;;;29.23;18.05;101556.66;5077612;28;842;-33
2021/01/19 02:51:42;;;;;;;;;;;;;;;29.22;18.40;101546.84;5077654;28;1005;-32
2021/01/19 02:54:07;;;;;;;;;;;;;;;29.46;17.80;101545.03;5097312;28;824;-33
2021/01/19 02:56:53;;;;;;;;;;;;;;;28.78;18.77;101551.75;5096378;28;755;-33
2021/01/19 02:59:18;;;;;;;;;;;;;;;29.17;18.07;101546.53;5086844;28;1897;-33
2021/01/19 03:01:46;;;;;;;;;;;;;;;29.38;17.93;101551.31;5097476;28;770;-34
2021/01/19 03:04:11;;;;;;;;;;;;;;;29.12;18.23;101554.34;5096771;28;781;-32
2021/01/19 03:06:36;;;;;;;;;;;;;;;28.63;18.37;101548.09;5096481;28;850;-34
2021/01/19 03:09:02;;;;;;;;;;;;;;;29.03;18.53;101548.16;5096005;28;946;-31
2021/01/19 03:11:27;;;;;;;;;;;;;;;29.34;18.20;101550.81;5097786;28;786;-39
2021/01/19 03:13:52;;;;;;;;;;;;;;;28.78;18.83;101553.63;5097597;28;799;-34
2021/01/19 03:16:18;;;;;;;;;;;;;;;29.00;18.65;101549.31;5097100;28;799;-32
2021/01/19 03:18:44;;;;;;;;;;;;;;;29.18;18.34;101545.50;5097271;28;1905;-33
2021/01/19 03:21:09;;;;;;;;;;;;;;;29.14;18.34;101541.47;5097648;28;763;-30
2021/01/19 03:23:35;;;;;;;;;;;;;;;29.07;18.35;101544.06;5080515;28;996;-33
2021/01/19 03:26:01;;;;;;;;;;;;;;;29.08;17.90;101535.75;5076829;28;1325;-33
2021/01/19 03:28:26;;;;;;;;;;;;;;;29.29;18.14;101534.28;5076971;28;811;-34
2021/01/19 03:30:51;;;;;;;;;;;;;;;29.38;17.70;101535.06;5076543;28;844;-34
2021/01/19 03:33:17;;;;;;;;;;;;;;;29.38;17.72;101524.22;5076720;28;1000;-32
2021/01/19 03:35:42;;;;;;;;;;;;;;;29.29;17.79;101522.59;5076928;28;847;-34
2021/01/19 03:38:07;;;;;;;;;;;;;;;28.97;17.93;101522.59;5088371;28;1918;-32
2021/01/19 03:40:33;;;;;;;;;;;;;;;29.24;17.95;101519.56;5097114;28;767;-35
2021/01/19 03:42:58;;;;;;;;;;;;;;;29.32;17.75;101516.81;5097180;28;830;-33
2021/01/19 03:45:23;;;;;;;;;;;;;;;29.26;17.67;101520.25;5096839;28;757;-34
2021/01/19 03:47:49;;;;;;;;;;;;;;;29.04;18.02;101522.72;5096951;28;779;-32
2021/01/19 03:50:14;;;;;;;;;;;;;;;29.04;17.91;101517.31;5097048;28;779;-32
2021/01/19 03:52:39;;;;;;;;;;;;;;;29.28;17.98;101521.75;5096182;28;942;-33
2021/01/19 03:55:05;;;;;;;;;;;;;;;28.99;18.26;101523.28;5097235;28;811;-32
2021/01/19 03:57:30;;;;;;;;;;;;;;;29.00;18.00;101529.50;5097056;28;704;-33
2021/01/19 03:59:55;;;;;;;;;;;;;;;29.01;17.98;101531.22;5096245;28;1917;-33
2021/01/19 04:02:21;;;;;;;;;;;;;;;29.27;17.75;101530.91;5096843;28;811;-33
2021/01/19 04:04:48;;;;;;;;;;;;;;;29.30;17.62;101518.84;5096863;28;831;-39
2021/01/19 04:07:13;;;;;;;;;;;;;;;29.33;17.80;101526.63;5096194;28;950;-34
2021/01/19 04:09:38;;;;;;;;;;;;;;;29.26;17.71;101529.19;5096784;28;752;-34
2021/01/19 04:12:04;;;;;;;;;;;;;;;29.09;17.96;101531.19;5096510;28;748;-31
2021/01/19 04:14:29;;;;;;;;;;;;;;;29.35;17.71;101532.72;5096324;28;815;-32
2021/01/19 04:16:54;;;;;;;;;;;;;;;28.50;18.20;101530.53;5096150;28;1074;-32
2021/01/19 04:19:20;;;;;;;;;;;;;;;28.16;18.82;101529.72;5096428;28;1905;-31
2021/01/19 04:21:45;;;;;;;;;;;;;;;27.62;20.05;101528.34;5095105;28;1018;-33
2021/01/19 04:24:10;;;;;;;;;;;;;;;27.53;19.79;101526.66;5076347;28;747;-30
2021/01/19 04:26:35;;;;;;;;;;;;;;;28.49;18.61;101534.25;5075881;28;1091;-34
2021/01/19 04:29:01;;;;;;;;;;;;;;;29.09;18.32;101536.59;5075968;28;797;-34
2021/01/19 04:31:26;;;;;;;;;;;;;;;29.20;18.21;101532.63;5076285;28;759;-38
2021/01/19 04:33:51;;;;;;;;;;;;;;;29.19;18.19;101533.66;5076083;28;779;-31
2021/01/19 04:36:17;;;;;;;;;;;;;;;29.16;18.07;101539.44;5076417;28;837;-33
2021/01/19 04:38:42;;;;;;;;;;;;;;;29.10;18.29;101535.56;5092633;28;1977;-41
2021/01/19 04:41:08;;;;;;;;;;;;;;;28.91;18.62;101536.81;5096282;28;799;-33
2021/01/19 04:43:33;;;;;;;;;;;;;;;24.62;11.50;101526.06;5096499;28;770;-39
2021/01/19 04:45:59;;;;;;;;;;;;;;;22.92;16.88;101526.16;5095998;28;779;-31
2021/01/19 04:48:24;;;;;;;;;;;;;;;25.16;14.23;101528.09;5094965;28;798;-30
2021/01/19 04:50:49;;;;;;;;;;;;;;;22.37;12.66;101517.38;5094894;28;807;-30
2021/01/19 04:53:15;;;;;;;;;;;;;;;19.44;14.46;101510.72;5093629;28;1092;-31
2021/01/19 04:55:44;;;;;;;;;;;;;;;19.66;13.53;101522.47;5096562;28;1537;-40
2021/01/19 04:58:11;;;;;;;;;;;;;;;17.70;14.53;101531.44;5116126;28;1966;-37
2021/01/19 05:00:37;;;;;;;;;;;;;;;17.30;14.29;101532.19;5104190;28;806;-33
2021/01/19 05:03:02;;;;;;;;;;;;;;;21.92;14.74;101535.38;5116457;28;828;-31
2021/01/19 05:05:36;;;;;;;;;;;;;;;22.87;16.03;101535.44;5115187;28;819;-35
2021/01/19 05:08:02;;;;;;;;;;;;;;;23.49;15.26;101536.31;5095479;28;962;-33
2021/01/19 05:10:33;;;;;;;;;;;;;;;24.14;14.75;101539.47;5096158;28;763;-39
2021/01/19 05:12:59;;;;;;;;;;;;;;;23.00;15.20;101542.41;5096396;28;755;-37
2021/01/19 05:15:24;;;;;;;;;;;;;;;24.53;16.41;101550.16;5095904;28;817;-34
2021/01/19 05:17:53;;;;;;;;;;;;;;;25.02;16.72;101546.47;5107489;28;1049;-34
2021/01/19 05:20:19;;;;;;;;;;;;;;;25.56;16.39;101550.25;5098242;28;1883;-35
2021/01/19 05:22:45;;;;;;;;;;;;;;;25.73;16.34;101559.38;5088389;28;954;-36
2021/01/19 05:25:11;;;;;;;;;;;;;;;26.05;16.26;101559.81;5079335;28;1138;-39
2021/01/19 05:27:36;;;;;;;;;;;;;;;26.30;16.38;101560.00;5079568;28;757;-35
2021/01/19 05:30:05;;;;;;;;;;;;;;;26.20;16.68;101553.84;5078588;28;862;-41
2021/01/19 05:32:37;;;;;;;;;;;;;;;26.86;16.11;101558.84;5079487;28;757;-35
2021/01/19 05:35:18;;;;;;;;;;;;;;;27.02;16.08;101569.75;5079197;28;779;-30
2021/01/19 05:37:54;;;;;;;;;;;;;;;27.37;16.03;101575.09;5087267;28;1067;-30
2021/01/19 05:40:19;;;;;;;;;;;;;;;27.43;16.54;101570.88;5099289;28;1918;-33
2021/01/19 05:42:45;;;;;;;;;;;;;;;26.98;15.75;101565.66;5099106;28;788;-37
2021/01/19 05:45:10;;;;;;;;;;;;;;;24.94;15.22;101570.59;5097203;28;899;-33
2021/01/19 05:47:35;;;;;;;;;;;;;;;24.79;14.07;101573.72;5099478;28;760;-33
2021/01/19 05:50:01;;;;;;;;;;;;;;;25.12;14.25;101577.88;5098945;28;803;-36
2021/01/19 05:52:30;;;;;;;;;;;;;;;25.95;15.40;101580.63;5098630;28;985;-37
2021/01/19 05:54:55;;;;;;;;;;;;;;;26.09;16.86;101588.16;5098770;28;825;-37
2021/01/19 05:57:21;;;;;;;;;;;;;;;26.87;16.30;101587.53;5098999;28;772;-35
2021/01/19 05:59:47;;;;;;;;;;;;;;;27.28;16.46;101597.69;5098671;28;1910;-37
2021/01/19 06:02:16;;;;;;;;;;;;;;;27.68;16.44;101597.09;5097716;28;1370;-34
2021/01/19 06:04:42;;;;;;;;;;;;;;;27.74;16.45;101583.81;5098754;28;791;-35
2021/01/19 06:07:08;;;;;;;;;;;;;;;27.86;16.74;101587.03;5098390;28;1005;-36
2021/01/19 06:09:33;;;;;;;;;;;;;;;27.82;16.78;101591.09;5097638;28;811;-32
2021/01/19 06:11:59;;;;;;;;;;;;;;;27.97;16.92;101583.16;5098545;28;769;-30
2021/01/19 06:14:25;;;;;;;;;;;;;;;28.09;16.89;101578.25;5098511;28;804;-30
2021/01/19 06:16:50;;;;;;;;;;;;;;;28.24;17.11;101588.41;5099033;28;817;-31
2021/01/19 06:19:25;;;;;;;;;;;;;;;28.42;17.11;101595.50;5098557;28;1906;-34
2021/01/19 06:21:50;;;;;;;;;;;;;;;28.63;16.85;101597.66;5096267;28;977;-30
2021/01/19 06:24:15;;;;;;;;;;;;;;;28.67;17.12;101600.88;5078019;28;1041;-36
2021/01/19 06:26:41;;;;;;;;;;;;;;;28.70;16.96;101608.63;5077671;28;1049;-30
2021/01/19 06:29:07;;;;;;;;;;;;;;;28.45;17.11;101600.56;5077374;28;913;-34
2021/01/19 06:31:32;;;;;;;;;;;;;;;28.70;16.96;101608.63;5078362;28;760;-31
2021/01/19 06:33:57;;;;;;;;;;;;;;;28.79;16.98;101604.91;5077153;28;807;-33
2021/01/19 06:36:22;;;;;;;;;;;;;;;28.83;17.26;101606.22;5077968;28;800;-33
2021/01/19 06:38:48;;;;;;;;;;;;;;;28.84;16.87;101609.78;5095633;28;1914;-32
2021/01/19 06:41:15;;;;;;;;;;;;;;;28.85;17.15;101609.63;5098541;28;838;-33
2021/01/19 06:43:40;;;;;;;;;;;;;;;28.90;16.97;101610.94;5093487;28;1196;-35
2021/01/19 06:46:07;;;;;;;;;;;;;;;28.94;17.08;101610.44;5079553;28;1221;-37
2021/01/19 06:48:32;;;;;;;;;;;;;;;29.00;16.99;101608.91;5088477;28;1212;-35
2021/01/19 06:50:59;;;;;;;;;;;;;;;29.04;17.14;101623.81;5076455;28;772;-35
2021/01/19 06:53:27;;;;;;;;;;;;;;;29.13;16.77;101604.81;5091406;28;962;-34
2021/01/19 06:55:55;;;;;;;;;;;;;;;28.52;17.02;101604.28;5098051;28;854;-36
2021/01/19 06:58:26;;;;;;;;;;;;;;;28.08;17.57;101600.03;5097589;28;1984;-35
2021/01/19 07:00:57;;;;;;;;;;;;;;;27.90;18.70;101598.34;5098029;28;788;-41
2021/01/19 07:03:23;;;;;;;;;;;;;;;28.66;18.00;101601.91;5098098;28;846;-32
2021/01/19 07:05:55;;;;;;;;;;;;;;;28.87;17.42;101603.16;5097809;28;706;-35
2021/01/19 07:08:20;;;;;;;;;;;;;;;29.20;17.10;101606.63;5097515;28;994;-35
2021/01/19 07:10:52;;;;;;;;;;;;;;;29.34;15.32;101610.44;5097975;28;810;-36
2021/01/19 07:13:26;;;;;;;;;;;;;;;29.24;15.47;101604.41;5097297;28;779;-35
2021/01/19 07:15:58;;;;;;;;;;;;;;;25.73;14.43;101605.19;5097788;28;831;-33
2021/01/19 07:18:31;;;;;;;;;;;;;;;27.88;15.84;101608.50;5097707;28;1976;-35
2021/01/19 07:21:01;;;;;;;;;;;;;;;28.39;15.78;101612.94;5096142;28;803;-40
2021/01/19 07:23:53;;;;;;;;;;;;;;;28.29;16.47;101613.09;5082080;28;962;-34
2021/01/19 07:26:21;;;;;;;;;;;;;;;28.80;16.27;101611.16;5074909;28;1362;-36
2021/01/19 07:28:47;;;;;;;;;;;;;;;28.91;16.15;101613.47;5076919;28;759;-38
2021/01/19 07:31:15;;;;;;;;;;;;;;;29.03;16.38;101613.16;5077405;28;859;-38
2021/01/19 07:33:42;;;;;;;;;;;;;;;29.06;16.13;101610.09;5076879;28;791;-38
2021/01/19 07:36:12;;;;;;;;;;;;;;;29.27;16.33;101609.47;5076762;28;736;-34
2021/01/19 07:38:37;;;;;;;;;;;;;;;28.90;16.52;101619.06;5091826;28;1909;-37
2021/01/19 07:41:03;;;;;;;;;;;;;;;28.56;16.40;101619.16;5097245;28;823;-38
2021/01/19 07:43:28;;;;;;;;;;;;;;;28.31;17.84;101618.31;5095704;28;847;-34
2021/01/19 07:45:54;;;;;;;;;;;;;;;29.05;17.38;101617.38;5095768;28;1305;-39
2021/01/19 07:48:37;;;;;;;;;;;;;;;29.26;17.26;101626.75;5096977;28;806;-39
2021/01/19 07:51:12;;;;;;;;;;;;;;;29.40;17.10;101630.59;5097216;28;817;-39
2021/01/19 07:53:53;;;;;;;;;;;;;;;29.38;17.19;101621.78;5097529;28;974;-40
2021/01/19 07:56:25;;;;;;;;;;;;;;;29.36;16.90;101634.69;5096624;28;775;-43
2021/01/19 07:58:51;;;;;;;;;;;;;;;28.99;17.42;101628.91;5097137;28;1905;-40
2021/01/19 08:01:23;;;;;;;;;;;;;;;28.73;17.52;101627.25;5097365;28;837;-42
2021/01/19 08:03:48;;;;;;;;;;;;;;;28.42;18.48;101636.09;5096915;28;763;-34
2021/01/19 08:06:13;;;;;;;;;;;;;;;27.31;15.36;101628.94;5097158;28;798;-35
2021/01/19 08:08:39;;;;;;;;;;;;;;;25.50;14.47;101631.69;5096386;28;969;-34
2021/01/19 08:11:04;;;;;;;;;;;;;;;23.94;17.00;101637.06;5096550;28;826;-31
2021/01/19 08:13:29;;;;;;;;;;;;;;;24.29;15.19;101639.38;5096941;28;746;-33
2021/01/19 08:16:04;;;;;;;;;;;;;;;24.02;14.83;101630.16;5096920;28;850;-35
2021/01/19 08:18:35;;;;;;;;;;;;;;;24.02;13.33;101635.53;5096244;28;1914;-31
2021/01/19 08:21:03;;;;;;;;;;;;;;;23.95;14.37;101640.59;5096667;28;838;-34
2021/01/19 08:23:32;;;;;;;;;;;;;;;24.01;12.61;101649.94;5081514;28;957;-31
2021/01/19 08:26:01;;;;;;;;;;;;;;;23.85;13.11;101649.50;5075584;28;1046;-30
2021/01/19 08:28:26;;;;;;;;;;;;;;;23.62;14.51;101656.94;5076540;28;763;-29
2021/01/19 08:30:51;;;;;;;;;;;;;;;23.19;13.75;101654.34;5075427;28;822;-33
2021/01/19 08:33:16;;;;;;;;;;;;;;;23.14;12.84;101661.94;5074780;28;879;-31
2021/01/19 08:35:42;;;;;;;;;;;;;;;23.24;13.04;101657.47;5074999;28;780;-31
2021/01/19 08:38:07;;;;;;;;;;;;;;;23.12;15.09;101661.25;5087076;28;942;-32
2021/01/19 08:40:33;;;;;;;;;;;;;;;24.70;15.01;101661.56;5096771;28;1910;-39
2021/01/19 08:42:58;;;;;;;;;;;;;;;25.30;13.90;101669.50;5096393;28;917;-35
2021/01/19 08:45:27;;;;;;;;;;;;;;;25.13;14.28;101661.19;5096718;28;877;-28
2021/01/19 08:47:53;;;;;;;;;;;;;;;25.61;14.69;101665.66;5096440;28;767;-37
2021/01/19 08:50:19;;;;;;;;;;;;;;;26.00;15.04;101667.28;5096844;28;824;-38
2021/01/19 08:52:44;;;;;;;;;;;;;;;25.89;13.98;101657.56;5099928;28;1016;-34
2021/01/19 08:55:16;;;;;;;;;;;;;;;25.95;15.05;101659.66;5100737;28;811;-32
2021/01/19 08:57:43;;;;;;;;;;;;;;;26.08;15.59;101658.41;5100220;28;811;-34
2021/01/19 09:00:09;;;;;;;;;;;;;;;26.26;15.50;101659.25;5100010;28;1893;-32
2021/01/19 09:02:34;;;;;;;;;;;;;;;26.25;15.66;101652.19;5100264;28;855;-36
2021/01/19 09:04:59;;;;;;;;;;;;;;;26.19;15.23;101649.25;5099205;28;815;-38
2021/01/19 09:07:28;;;;;;;;;;;;;;;25.56;15.80;101639.16;5098818;28;966;-36
2021/01/19 09:09:53;;;;;;;;;;;;;;;25.65;16.13;101638.28;5100654;28;818;-39
2021/01/19 09:12:20;;;;;;;;;;;;;;;25.70;15.09;101634.28;5099881;28;827;-34
2021/01/19 09:14:52;;;;;;;;;;;;;;;25.77;13.77;101633.53;5100002;28;787;-32
2021/01/19 09:17:26;;;;;;;;;;;;;;;25.73;14.54;101634.84;5099940;28;1130;-34
2021/01/19 09:20:04;;;;;;;;;;;;;;;25.80;14.87;101635.94;5099907;28;1894;-35
2021/01/19 09:22:29;;;;;;;;;;;;;;;25.41;14.08;101623.50;5092806;28;949;-33
2021/01/19 09:24:55;;;;;;;;;;;;;;;25.11;14.67;101617.41;5079606;28;1165;-36
2021/01/19 09:27:20;;;;;;;;;;;;;;;25.03;13.55;101622.69;5079200;28;858;-34
2021/01/19 09:29:45;;;;;;;;;;;;;;;25.03;13.87;101604.69;5079533;28;822;-34
2021/01/19 09:32:11;;;;;;;;;;;;;;;25.35;15.40;101602.56;5079964;28;807;-35
2021/01/19 09:34:36;;;;;;;;;;;;;;;25.64;16.20;101590.78;5077944;28;836;-33
2021/01/19 09:37:03;;;;;;;;;;;;;;;25.84;17.35;101595.19;5081660;28;1191;-34
2021/01/19 09:39:29;;;;;;;;;;;;;;;26.13;15.09;101592.25;5098156;28;1996;-33
2021/01/19 09:41:54;;;;;;;;;;;;;;;26.19;13.77;101596.19;5099266;28;755;-33
2021/01/19 09:44:20;;;;;;;;;;;;;;;25.58;14.95;101590.50;5098398;28;795;-35
2021/01/19 09:46:45;;;;;;;;;;;;;;;25.51;13.45;101583.03;5099591;28;807;-34
2021/01/19 09:49:11;;;;;;;;;;;;;;;25.38;13.20;101585.25;5097916;28;953;-34
2021/01/19 09:51:36;;;;;;;;;;;;;;;25.45;13.04;101583.66;5086350;28;1223;-40
2021/01/19 09:54:01;;;;;;;;;;;;;;;25.29;11.98;101581.63;5079373;28;974;-36
2021/01/19 09:56:27;;;;;;;;;;;;;;;24.49;12.68;101577.50;5080739;28;904;-35
2021/01/19 09:59:01;;;;;;;;;;;;;;;24.70;12.28;101571.91;5098949;28;1893;-34
2021/01/19 10:01:27;;;;;;;;;;;;;;;24.84;12.01;101581.34;5097739;28;922;-36
2021/01/19 10:03:52;;;;;;;;;;;;;;;24.47;11.53;101564.19;5087415;28;1220;-33
2021/01/19 10:06:20;;;;;;;;;;;;;;;23.89;12.07;101564.06;5088084;28;1232;-38
2021/01/19 10:08:50;;;;;;;;;;;;;;;24.62;12.17;101566.44;5089396;28;1275;-32
2021/01/19 10:11:26;;;;;;;;;;;;;;;24.93;11.52;101560.81;5087540;28;1196;-35
2021/01/19 10:13:51;;;;;;;;;;;;;;;24.48;12.37;101555.13;5087564;28;1197;-32
2021/01/19 10:16:16;;;;;;;;;;;;;;;24.33;13.45;101547.53;5088148;28;1224;-35
2021/01/19 10:18:42;;;;;;;;;;;;;;;24.65;12.63;101547.28;5088413;28;1903;-34
2021/01/19 10:21:07;;;;;;;;;;;;;;;24.40;13.13;101547.81;5081194;28;1188;-37
2021/01/19 10:23:32;;;;;;;;;;;;;;;24.20;12.28;101546.97;5093046;28;947;-35
2021/01/19 10:26:08;;;;;;;;;;;;;;;24.60;12.49;101541.50;5097280;28;1085;-32
2021/01/19 10:28:43;;;;;;;;;;;;;;;24.59;12.40;101543.34;5098814;28;845;-33
2021/01/19 10:31:15;;;;;;;;;;;;;;;23.99;11.92;101549.81;5098444;28;827;-35
2021/01/19 10:33:42;;;;;;;;;;;;;;;24.11;12.42;101537.91;5097968;28;806;-35
2021/01/19 10:36:08;;;;;;;;;;;;;;;24.91;14.35;101538.56;5097635;28;827;-33
2021/01/19 10:38:33;;;;;;;;;;;;;;;25.29;14.13;101530.47;5098228;28;1906;-34
2021/01/19 10:40:58;;;;;;;;;;;;;;;25.03;13.06;101528.47;5096866;28;780;-35
2021/01/19 10:43:24;;;;;;;;;;;;;;;24.97;13.42;101524.53;5098806;28;830;-36
2021/01/19 10:45:49;;;;;;;;;;;;;;;25.59;14.33;101508.69;5097125;28;1297;-36
2021/01/19 10:48:18;;;;;;;;;;;;;;;26.19;15.32;101507.19;5097658;28;518;-37
2021/01/19 10:50:44;;;;;;;;;;;;;;;25.28;13.58;101510.75;5089574;28;1204;-35
2021/01/19 10:53:09;;;;;;;;;;;;;;;25.54;13.56;101507.28;5090153;28;1004;-35
2021/01/19 10:55:34;;;;;;;;;;;;;;;25.36;13.01;101504.59;5098151;28;874;-34
2021/01/19 10:58:03;;;;;;;;;;;;;;;22.22;14.56;101488.22;5098118;28;776;-36
2021/01/19 11:00:28;;;;;;;;;;;;;;;24.64;13.58;101486.44;5097791;28;1959;-34
2021/01/19 11:02:54;;;;;;;;;;;;;;;25.70;14.39;101484.25;5097875;28;782;-36
2021/01/19 11:05:19;;;;;;;;;;;;;;;26.10;14.03;101484.72;5098034;28;791;-35
2021/01/19 11:07:48;;;;;;;;;;;;;;;25.66;12.60;101486.38;5097387;28;945;-36
2021/01/19 11:10:13;;;;;;;;;;;;;;;25.47;13.20;101473.91;5098027;28;775;-37
2021/01/19 11:12:39;;;;;;;;;;;;;;;25.82;13.23;101478.59;5097886;28;776;-38
2021/01/19 11:15:06;;;;;;;;;;;;;;;26.23;13.87;101478.88;5097023;28;740;-34
2021/01/19 11:17:31;;;;;;;;;;;;;;;25.10;12.23;101475.72;5097675;28;1266;-33
2021/01/19 11:19:56;;;;;;;;;;;;;;;25.19;12.09;101474.81;5097476;28;1959;-37
2021/01/19 11:22:21;;;;;;;;;;;;;;;25.40;11.59;101473.69;5095456;28;863;-37
2021/01/19 11:24:47;;;;;;;;;;;;;;;25.06;11.82;101464.41;5097215;28;1556;-35
2021/01/19 11:27:12;;;;;;;;;;;;;;;24.72;11.90;101459.63;5097573;28;779;-37
2021/01/19 11:29:37;;;;;;;;;;;;;;;24.63;11.90;101452.44;5097387;28;834;-39
2021/01/19 11:32:03;;;;;;;;;;;;;;;24.38;11.81;101450.28;5097255;28;735;-38
2021/01/19 11:34:28;;;;;;;;;;;;;;;23.87;12.13;101457.75;5097791;28;722;-37
2021/01/19 11:36:53;;;;;;;;;;;;;;;23.93;12.23;101457.16;5097081;28;1001;-34
2021/01/19 11:39:19;;;;;;;;;;;;;;;23.94;11.80;101458.88;5097102;28;1913;-31
2021/01/19 11:41:44;;;;;;;;;;;;;;;23.90;11.78;101455.63;5097307;28;820;-34
2021/01/19 11:44:11;;;;;;;;;;;;;;;25.28;14.20;101443.44;5097255;28;745;-34
2021/01/19 11:46:38;;;;;;;;;;;;;;;27.16;13.54;101453.16;5097391;28;813;-30
2021/01/19 11:49:03;;;;;;;;;;;;;;;27.99;12.52;101450.47;5097177;28;822;-34
2021/01/19 11:51:30;;;;;;;;;;;;;;;28.06;12.03;101450.63;5097472;28;767;-34
2021/01/19 11:53:56;;;;;;;;;;;;;;;27.84;12.27;101444.94;5096736;28;961;-32
2021/01/19 11:56:30;;;;;;;;;;;;;;;28.45;11.75;101452.56;5097041;28;758;-32
2021/01/19 11:58:55;;;;;;;;;;;;;;;28.57;11.72;101446.78;5096996;28;1901;-34
2021/01/19 12:01:21;;;;;;;;;;;;;;;28.80;11.26;101444.13;5096861;28;779;-31
2021/01/19 12:03:47;;;;;;;;;;;;;;;29.01;10.90;101445.38;5097243;28;740;-32
2021/01/19 12:06:12;;;;;;;;;;;;;;;28.67;11.05;101430.31;5096712;28;481;-34
2021/01/19 12:08:38;;;;;;;;;;;;;;;28.80;11.30;101440.56;5096690;28;1012;-31
2021/01/19 12:11:05;;;;;;;;;;;;;;;29.29;10.90;101428.59;5097263;28;814;-31
2021/01/19 12:13:31;;;;;;;;;;;;;;;29.58;11.20;101447.81;5096859;28;802;-31
2021/01/19 12:15:56;;;;;;;;;;;;;;;29.71;11.59;101436.41;5096675;28;844;-32
2021/01/19 12:18:22;;;;;;;;;;;;;;;29.02;11.62;101433.53;5096704;28;1099;-30
2021/01/19 12:20:47;;;;;;;;;;;;;;;29.30;10.74;101443.81;5096871;28;1957;-28
2021/01/19 12:23:13;;;;;;;;;;;;;;;29.25;10.64;101437.25;5083510;28;953;-34
2021/01/19 12:25:38;;;;;;;;;;;;;;;29.81;10.03;101444.28;5078619;28;1275;-32
2021/01/19 12:28:03;;;;;;;;;;;;;;;29.50;9.74;101424.34;5080984;28;807;-31
2021/01/19 12:30:29;;;;;;;;;;;;;;;30.03;9.39;101428.94;5080308;28;871;-30
2021/01/19 12:32:54;;;;;;;;;;;;;;;30.40;9.02;101428.22;5080509;28;826;-30
2021/01/19 12:35:20;;;;;;;;;;;;;;;30.31;9.18;101431.03;5080798;28;775;-34
2021/01/19 12:37:45;;;;;;;;;;;;;;;30.13;9.44;101438.69;5088857;28;946;-34
2021/01/19 12:40:11;;;;;;;;;;;;;;;29.86;9.90;101432.88;5100701;28;1917;-31
2021/01/19 12:42:36;;;;;;;;;;;;;;;29.92;9.34;101437.53;5100849;28;1341;-32
2021/01/19 12:45:01;;;;;;;;;;;;;;;30.70;8.80;101427.34;5100423;28;751;-33
2021/01/19 12:47:27;;;;;;;;;;;;;;;29.93;9.22;101434.66;5100526;28;891;-32
2021/01/19 12:49:52;;;;;;;;;;;;;;;30.27;8.98;101424.31;5096475;28;1201;-29
2021/01/19 12:52:17;;;;;;;;;;;;;;;30.48;8.80;101424.56;5092372;28;1283;-31
2021/01/19 12:54:43;;;;;;;;;;;;;;;29.62;9.31;101429.38;5098488;28;1173;-34